sensor_id;sensor_type;location;lat;lon;timestamp;P1;durP1;ratioP1;P2;durP2;ratioP2
37847;SDS011;23688;33.130;-117.188;2024-03-23T00:55:36;12.82;;;2.70;;
37847;SDS011;23688;33.130;-117.188;2024-03-23T01:00:31;5.55;;;2.90;;
37847;SDS011;23688;33.130;-117.188;2024-03-23T01:02:58;10.63;;;2.50;;
37847;SDS011;23688;33.130;-117.188;2024-03-23T01:05:25;7.07;;;2.30;;
37847;SDS011;23688;33.130;-117.188;2024-03-23T01:07:52;8.32;;;2.70;;
37847;SDS011;23688;33.130;-117.188;2024-03-23T01:10:19;5.32;;;2.10;;
37847;SDS011;23688;33.130;-117.188;2024-03-23T01:12:45;6.93;;;2.55;;
37847;SDS011;23688;33.130;-117.188;2024-03-23T01:15:12;5.18;;;2.13;;
37847;SDS011;23688;33.130;-117.188;2024-03-23T01:17:38;9.45;;;2.63;;
37847;SDS011;23688;33.130;-117.188;2024-03-23T01:20:04;9.50;;;2.55;;
37847;SDS011;23688;33.130;-117.188;2024-03-23T01:22:31;8.75;;;2.78;;
37847;SDS011;23688;33.130;-117.188;2024-03-23T01:24:58;4.75;;;2.55;;
37847;SDS011;23688;33.130;-117.188;2024-03-23T01:27:25;5.28;;;2.83;;
37847;SDS011;23688;33.130;-117.188;2024-03-23T01:29:51;8.27;;;2.40;;
37847;SDS011;23688;33.130;-117.188;2024-03-23T01:32:18;9.40;;;3.45;;
37847;SDS011;23688;33.130;-117.188;2024-03-23T01:34:45;12.23;;;3.40;;
37847;SDS011;23688;33.130;-117.188;2024-03-23T01:37:11;9.57;;;3.55;;
37847;SDS011;23688;33.130;-117.188;2024-03-23T01:39:38;14.38;;;4.78;;
37847;SDS011;23688;33.130;-117.188;2024-03-23T01:42:04;12.68;;;3.70;;
37847;SDS011;23688;33.130;-117.188;2024-03-23T01:44:31;9.50;;;3.65;;
37847;SDS011;23688;33.130;-117.188;2024-03-23T01:46:58;13.90;;;3.60;;
37847;SDS011;23688;33.130;-117.188;2024-03-23T01:49:25;10.63;;;3.60;;
37847;SDS011;23688;33.130;-117.188;2024-03-23T01:51:52;8.75;;;3.63;;
37847;SDS011;23688;33.130;-117.188;2024-03-23T01:54:20;8.90;;;3.35;;
37847;SDS011;23688;33.130;-117.188;2024-03-23T01:56:48;9.52;;;4.05;;
37847;SDS011;23688;33.130;-117.188;2024-03-23T01:59:15;12.10;;;4.18;;
37847;SDS011;23688;33.130;-117.188;2024-03-23T02:01:42;14.52;;;4.30;;
37847;SDS011;23688;33.130;-117.188;2024-03-23T02:04:12;11.95;;;4.38;;
37847;SDS011;23688;33.130;-117.188;2024-03-23T02:06:39;12.07;;;4.30;;
37847;SDS011;23688;33.130;-117.188;2024-03-23T02:09:06;13.77;;;5.00;;
37847;SDS011;23688;33.130;-117.188;2024-03-23T02:11:32;5.00;;;4.00;;
37847;SDS011;23688;33.130;-117.188;2024-03-23T02:13:59;10.43;;;4.25;;
37847;SDS011;23688;33.130;-117.188;2024-03-23T02:16:25;9.98;;;3.85;;
37847;SDS011;23688;33.130;-117.188;2024-03-23T02:18:52;16.10;;;4.55;;
37847;SDS011;23688;33.130;-117.188;2024-03-23T02:21:18;12.18;;;5.72;;
37847;SDS011;23688;33.130;-117.188;2024-03-23T02:23:45;17.48;;;4.30;;
37847;SDS011;23688;33.130;-117.188;2024-03-23T02:26:11;9.05;;;3.53;;
37847;SDS011;23688;33.130;-117.188;2024-03-23T02:28:40;8.30;;;3.83;;
37847;SDS011;23688;33.130;-117.188;2024-03-23T02:31:07;11.33;;;3.77;;
37847;SDS011;23688;33.130;-117.188;2024-03-23T02:33:33;10.60;;;3.83;;
37847;SDS011;23688;33.130;-117.188;2024-03-23T02:36:03;9.93;;;3.75;;
37847;SDS011;23688;33.130;-117.188;2024-03-23T02:38:31;7.05;;;3.83;;
37847;SDS011;23688;33.130;-117.188;2024-03-23T02:41:06;11.10;;;3.40;;
37847;SDS011;23688;33.130;-117.188;2024-03-23T02:43:34;10.88;;;3.65;;
37847;SDS011;23688;33.130;-117.188;2024-03-23T02:46:00;15.77;;;4.22;;
37847;SDS011;23688;33.130;-117.188;2024-03-23T02:48:28;7.00;;;3.60;;
37847;SDS011;23688;33.130;-117.188;2024-03-23T02:50:54;8.15;;;5.10;;
37847;SDS011;23688;33.130;-117.188;2024-03-23T02:53:21;14.30;;;4.65;;
37847;SDS011;23688;33.130;-117.188;2024-03-23T02:55:47;6.15;;;3.50;;
37847;SDS011;23688;33.130;-117.188;2024-03-23T02:58:14;20.13;;;4.70;;
37847;SDS011;23688;33.130;-117.188;2024-03-23T03:00:40;12.00;;;3.85;;
37847;SDS011;23688;33.130;-117.188;2024-03-23T03:03:07;8.95;;;3.83;;
37847;SDS011;23688;33.130;-117.188;2024-03-23T03:05:34;10.57;;;3.95;;
37847;SDS011;23688;33.130;-117.188;2024-03-23T03:08:00;13.48;;;3.75;;
37847;SDS011;23688;33.130;-117.188;2024-03-23T03:10:27;8.38;;;3.15;;
37847;SDS011;23688;33.130;-117.188;2024-03-23T03:12:53;9.65;;;3.40;;
37847;SDS011;23688;33.130;-117.188;2024-03-23T03:15:19;10.70;;;4.05;;
37847;SDS011;23688;33.130;-117.188;2024-03-23T03:17:46;12.27;;;3.50;;
37847;SDS011;23688;33.130;-117.188;2024-03-23T03:20:13;10.65;;;4.15;;
37847;SDS011;23688;33.130;-117.188;2024-03-23T03:22:41;13.48;;;4.45;;
37847;SDS011;23688;33.130;-117.188;2024-03-23T03:25:09;12.35;;;3.75;;
37847;SDS011;23688;33.130;-117.188;2024-03-23T03:27:35;8.43;;;3.50;;
37847;SDS011;23688;33.130;-117.188;2024-03-23T03:30:02;8.05;;;4.05;;
37847;SDS011;23688;33.130;-117.188;2024-03-23T03:32:32;10.75;;;4.10;;
37847;SDS011;23688;33.130;-117.188;2024-03-23T03:34:58;13.15;;;4.57;;
37847;SDS011;23688;33.130;-117.188;2024-03-23T03:37:25;6.78;;;4.40;;
37847;SDS011;23688;33.130;-117.188;2024-03-23T03:39:51;8.23;;;4.25;;
37847;SDS011;23688;33.130;-117.188;2024-03-23T03:42:18;11.35;;;4.97;;
37847;SDS011;23688;33.130;-117.188;2024-03-23T03:44:44;9.35;;;5.00;;
37847;SDS011;23688;33.130;-117.188;2024-03-23T03:47:11;16.73;;;5.72;;
37847;SDS011;23688;33.130;-117.188;2024-03-23T03:49:37;12.52;;;5.18;;
37847;SDS011;23688;33.130;-117.188;2024-03-23T03:52:03;10.63;;;5.30;;
37847;SDS011;23688;33.130;-117.188;2024-03-23T03:54:30;14.98;;;6.68;;
37847;SDS011;23688;33.130;-117.188;2024-03-23T03:56:58;16.55;;;7.18;;
37847;SDS011;23688;33.130;-117.188;2024-03-23T03:59:24;10.15;;;6.60;;
37847;SDS011;23688;33.130;-117.188;2024-03-23T04:01:51;14.35;;;6.13;;
37847;SDS011;23688;33.130;-117.188;2024-03-23T04:04:18;11.75;;;5.95;;
37847;SDS011;23688;33.130;-117.188;2024-03-23T04:06:46;13.18;;;5.93;;
37847;SDS011;23688;33.130;-117.188;2024-03-23T04:09:12;15.23;;;6.80;;
37847;SDS011;23688;33.130;-117.188;2024-03-23T04:11:38;12.60;;;6.90;;
37847;SDS011;23688;33.130;-117.188;2024-03-23T04:14:05;17.00;;;7.13;;
37847;SDS011;23688;33.130;-117.188;2024-03-23T04:16:34;10.57;;;6.10;;
37847;SDS011;23688;33.130;-117.188;2024-03-23T04:19:02;15.75;;;7.05;;
37847;SDS011;23688;33.130;-117.188;2024-03-23T04:21:29;11.52;;;5.95;;
37847;SDS011;23688;33.130;-117.188;2024-03-23T04:23:55;8.35;;;5.47;;
37847;SDS011;23688;33.130;-117.188;2024-03-23T04:26:22;14.15;;;5.60;;
37847;SDS011;23688;33.130;-117.188;2024-03-23T04:28:48;11.50;;;5.28;;
37847;SDS011;23688;33.130;-117.188;2024-03-23T04:31:14;11.18;;;5.07;;
37847;SDS011;23688;33.130;-117.188;2024-03-23T04:33:41;8.20;;;5.53;;
37847;SDS011;23688;33.130;-117.188;2024-03-23T04:36:07;13.27;;;4.55;;
37847;SDS011;23688;33.130;-117.188;2024-03-23T04:38:34;12.85;;;4.88;;
37847;SDS011;23688;33.130;-117.188;2024-03-23T04:41:01;22.35;;;5.10;;
37847;SDS011;23688;33.130;-117.188;2024-03-23T04:43:27;9.60;;;5.88;;
37847;SDS011;23688;33.130;-117.188;2024-03-23T04:45:54;10.48;;;4.80;;
37847;SDS011;23688;33.130;-117.188;2024-03-23T04:48:21;7.57;;;4.47;;
37847;SDS011;23688;33.130;-117.188;2024-03-23T04:50:48;7.88;;;4.25;;
37847;SDS011;23688;33.130;-117.188;2024-03-23T04:53:15;5.88;;;3.72;;
37847;SDS011;23688;33.130;-117.188;2024-03-23T04:55:42;6.05;;;3.90;;
37847;SDS011;23688;33.130;-117.188;2024-03-23T04:58:08;6.28;;;3.83;;
37847;SDS011;23688;33.130;-117.188;2024-03-23T05:00:35;9.60;;;3.80;;
37847;SDS011;23688;33.130;-117.188;2024-03-23T05:03:01;8.55;;;3.88;;
37847;SDS011;23688;33.130;-117.188;2024-03-23T05:05:28;9.40;;;3.75;;
37847;SDS011;23688;33.130;-117.188;2024-03-23T05:07:55;8.57;;;3.80;;
37847;SDS011;23688;33.130;-117.188;2024-03-23T05:10:22;8.57;;;3.90;;
37847;SDS011;23688;33.130;-117.188;2024-03-23T05:12:48;9.45;;;3.92;;
37847;SDS011;23688;33.130;-117.188;2024-03-23T05:15:14;10.20;;;3.80;;
37847;SDS011;23688;33.130;-117.188;2024-03-23T05:17:41;6.40;;;4.05;;
37847;SDS011;23688;33.130;-117.188;2024-03-23T05:20:07;8.18;;;4.22;;
37847;SDS011;23688;33.130;-117.188;2024-03-23T05:22:38;9.95;;;4.60;;
37847;SDS011;23688;33.130;-117.188;2024-03-23T05:25:05;10.93;;;4.60;;
37847;SDS011;23688;33.130;-117.188;2024-03-23T05:27:32;8.55;;;4.70;;
37847;SDS011;23688;33.130;-117.188;2024-03-23T05:29:59;9.07;;;4.47;;
37847;SDS011;23688;33.130;-117.188;2024-03-23T05:32:26;7.75;;;4.40;;
37847;SDS011;23688;33.130;-117.188;2024-03-23T05:34:53;9.02;;;4.22;;
37847;SDS011;23688;33.130;-117.188;2024-03-23T05:37:22;7.47;;;3.80;;
37847;SDS011;23688;33.130;-117.188;2024-03-23T05:39:49;10.55;;;3.85;;
37847;SDS011;23688;33.130;-117.188;2024-03-23T05:42:16;7.75;;;4.68;;
37847;SDS011;23688;33.130;-117.188;2024-03-23T05:44:46;8.15;;;3.97;;
37847;SDS011;23688;33.130;-117.188;2024-03-23T05:47:13;9.13;;;4.50;;
37847;SDS011;23688;33.130;-117.188;2024-03-23T05:49:41;6.38;;;3.55;;
37847;SDS011;23688;33.130;-117.188;2024-03-23T05:52:09;9.10;;;4.50;;
37847;SDS011;23688;33.130;-117.188;2024-03-23T05:54:36;13.63;;;4.22;;
37847;SDS011;23688;33.130;-117.188;2024-03-23T05:57:02;11.05;;;4.35;;
37847;SDS011;23688;33.130;-117.188;2024-03-23T05:59:29;11.50;;;4.40;;
37847;SDS011;23688;33.130;-117.188;2024-03-23T06:01:56;9.23;;;4.07;;
37847;SDS011;23688;33.130;-117.188;2024-03-23T06:04:22;8.38;;;3.80;;
37847;SDS011;23688;33.130;-117.188;2024-03-23T06:06:50;8.05;;;3.95;;
37847;SDS011;23688;33.130;-117.188;2024-03-23T06:09:20;10.35;;;4.65;;
37847;SDS011;23688;33.130;-117.188;2024-03-23T06:11:46;9.02;;;4.90;;
37847;SDS011;23688;33.130;-117.188;2024-03-23T06:14:14;8.50;;;4.70;;
37847;SDS011;23688;33.130;-117.188;2024-03-23T06:16:40;9.35;;;3.97;;
37847;SDS011;23688;33.130;-117.188;2024-03-23T06:19:07;9.43;;;4.13;;
37847;SDS011;23688;33.130;-117.188;2024-03-23T06:21:33;8.55;;;3.90;;
37847;SDS011;23688;33.130;-117.188;2024-03-23T06:23:59;8.85;;;4.10;;
37847;SDS011;23688;33.130;-117.188;2024-03-23T06:26:26;11.65;;;3.92;;
37847;SDS011;23688;33.130;-117.188;2024-03-23T06:28:52;7.82;;;4.10;;
37847;SDS011;23688;33.130;-117.188;2024-03-23T06:31:19;11.25;;;4.15;;
37847;SDS011;23688;33.130;-117.188;2024-03-23T06:33:45;5.68;;;3.92;;
37847;SDS011;23688;33.130;-117.188;2024-03-23T06:36:11;9.98;;;3.67;;
37847;SDS011;23688;33.130;-117.188;2024-03-23T06:38:41;9.68;;;3.45;;
37847;SDS011;23688;33.130;-117.188;2024-03-23T06:41:08;9.65;;;3.47;;
37847;SDS011;23688;33.130;-117.188;2024-03-23T06:43:35;9.52;;;3.80;;
37847;SDS011;23688;33.130;-117.188;2024-03-23T06:46:01;7.57;;;4.07;;
37847;SDS011;23688;33.130;-117.188;2024-03-23T06:48:29;6.50;;;4.10;;
37847;SDS011;23688;33.130;-117.188;2024-03-23T06:50:56;11.88;;;4.10;;
37847;SDS011;23688;33.130;-117.188;2024-03-23T06:53:23;8.77;;;3.90;;
37847;SDS011;23688;33.130;-117.188;2024-03-23T06:55:50;14.30;;;3.85;;
37847;SDS011;23688;33.130;-117.188;2024-03-23T06:58:21;8.97;;;3.20;;
37847;SDS011;23688;33.130;-117.188;2024-03-23T07:00:49;11.05;;;4.10;;
37847;SDS011;23688;33.130;-117.188;2024-03-23T07:03:16;6.22;;;3.80;;
37847;SDS011;23688;33.130;-117.188;2024-03-23T07:05:42;13.75;;;3.30;;
37847;SDS011;23688;33.130;-117.188;2024-03-23T07:08:09;7.57;;;4.13;;
37847;SDS011;23688;33.130;-117.188;2024-03-23T07:10:38;8.52;;;3.92;;
37847;SDS011;23688;33.130;-117.188;2024-03-23T07:13:05;7.18;;;3.67;;
37847;SDS011;23688;33.130;-117.188;2024-03-23T07:15:32;13.65;;;4.00;;
37847;SDS011;23688;33.130;-117.188;2024-03-23T07:17:59;5.70;;;3.58;;
37847;SDS011;23688;33.130;-117.188;2024-03-23T07:20:25;5.85;;;3.90;;
37847;SDS011;23688;33.130;-117.188;2024-03-23T07:22:52;12.95;;;4.22;;
37847;SDS011;23688;33.130;-117.188;2024-03-23T07:25:18;7.15;;;4.70;;
37847;SDS011;23688;33.130;-117.188;2024-03-23T07:27:46;11.45;;;4.07;;
37847;SDS011;23688;33.130;-117.188;2024-03-23T07:30:13;10.82;;;4.40;;
37847;SDS011;23688;33.130;-117.188;2024-03-23T07:32:39;11.23;;;4.30;;
37847;SDS011;23688;33.130;-117.188;2024-03-23T07:35:05;10.20;;;3.85;;
37847;SDS011;23688;33.130;-117.188;2024-03-23T07:37:32;15.63;;;4.78;;
37847;SDS011;23688;33.130;-117.188;2024-03-23T07:39:58;9.30;;;4.05;;
37847;SDS011;23688;33.130;-117.188;2024-03-23T07:42:25;18.17;;;4.20;;
37847;SDS011;23688;33.130;-117.188;2024-03-23T07:44:52;8.30;;;4.07;;
37847;SDS011;23688;33.130;-117.188;2024-03-23T07:47:20;5.75;;;3.42;;
37847;SDS011;23688;33.130;-117.188;2024-03-23T07:49:46;8.30;;;3.85;;
37847;SDS011;23688;33.130;-117.188;2024-03-23T07:52:13;8.90;;;3.80;;
37847;SDS011;23688;33.130;-117.188;2024-03-23T07:54:39;6.95;;;3.88;;
37847;SDS011;23688;33.130;-117.188;2024-03-23T07:57:05;7.43;;;3.22;;
37847;SDS011;23688;33.130;-117.188;2024-03-23T07:59:32;8.55;;;4.10;;
37847;SDS011;23688;33.130;-117.188;2024-03-23T08:01:59;5.38;;;3.92;;
37847;SDS011;23688;33.130;-117.188;2024-03-23T08:04:28;8.68;;;3.42;;
37847;SDS011;23688;33.130;-117.188;2024-03-23T08:06:54;10.35;;;4.45;;
37847;SDS011;23688;33.130;-117.188;2024-03-23T08:09:21;8.15;;;3.35;;
37847;SDS011;23688;33.130;-117.188;2024-03-23T08:11:48;9.82;;;3.97;;
37847;SDS011;23688;33.130;-117.188;2024-03-23T08:14:14;10.02;;;4.13;;
37847;SDS011;23688;33.130;-117.188;2024-03-23T08:16:40;8.40;;;3.33;;
37847;SDS011;23688;33.130;-117.188;2024-03-23T08:19:06;10.35;;;3.50;;
37847;SDS011;23688;33.130;-117.188;2024-03-23T08:21:34;7.88;;;3.13;;
37847;SDS011;23688;33.130;-117.188;2024-03-23T08:24:00;6.47;;;3.63;;
37847;SDS011;23688;33.130;-117.188;2024-03-23T08:26:26;8.27;;;3.42;;
37847;SDS011;23688;33.130;-117.188;2024-03-23T08:28:54;8.00;;;3.90;;
37847;SDS011;23688;33.130;-117.188;2024-03-23T08:31:21;7.72;;;3.25;;
37847;SDS011;23688;33.130;-117.188;2024-03-23T08:33:47;8.18;;;3.17;;
37847;SDS011;23688;33.130;-117.188;2024-03-23T08:36:13;5.25;;;2.83;;
37847;SDS011;23688;33.130;-117.188;2024-03-23T08:38:40;10.80;;;3.22;;
37847;SDS011;23688;33.130;-117.188;2024-03-23T08:41:07;7.70;;;2.75;;
37847;SDS011;23688;33.130;-117.188;2024-03-23T08:43:35;9.35;;;2.67;;
37847;SDS011;23688;33.130;-117.188;2024-03-23T08:46:03;11.90;;;3.67;;
37847;SDS011;23688;33.130;-117.188;2024-03-23T08:48:31;4.37;;;2.50;;
37847;SDS011;23688;33.130;-117.188;2024-03-23T08:51:03;4.95;;;2.15;;
37847;SDS011;23688;33.130;-117.188;2024-03-23T08:53:32;7.90;;;2.55;;
37847;SDS011;23688;33.130;-117.188;2024-03-23T08:55:58;2.85;;;2.28;;
37847;SDS011;23688;33.130;-117.188;2024-03-23T08:58:26;7.38;;;2.80;;
37847;SDS011;23688;33.130;-117.188;2024-03-23T09:00:54;8.60;;;2.70;;
37847;SDS011;23688;33.130;-117.188;2024-03-23T09:03:24;7.82;;;2.55;;
37847;SDS011;23688;33.130;-117.188;2024-03-23T09:05:52;5.85;;;2.90;;
37847;SDS011;23688;33.130;-117.188;2024-03-23T09:10:46;9.23;;;3.28;;
37847;SDS011;23688;33.130;-117.188;2024-03-23T09:13:13;6.82;;;2.28;;
37847;SDS011;23688;33.130;-117.188;2024-03-23T09:15:50;8.15;;;2.70;;
37847;SDS011;23688;33.130;-117.188;2024-03-23T09:18:21;8.20;;;2.60;;
37847;SDS011;23688;33.130;-117.188;2024-03-23T09:20:49;7.28;;;2.63;;
37847;SDS011;23688;33.130;-117.188;2024-03-23T09:23:16;10.45;;;3.47;;
37847;SDS011;23688;33.130;-117.188;2024-03-23T09:25:42;6.97;;;2.75;;
37847;SDS011;23688;33.130;-117.188;2024-03-23T09:28:08;5.57;;;2.35;;
37847;SDS011;23688;33.130;-117.188;2024-03-23T09:30:35;8.82;;;3.10;;
37847;SDS011;23688;33.130;-117.188;2024-03-23T09:33:08;6.50;;;2.63;;
37847;SDS011;23688;33.130;-117.188;2024-03-23T09:35:38;6.40;;;2.97;;
37847;SDS011;23688;33.130;-117.188;2024-03-23T09:38:05;12.77;;;2.85;;
37847;SDS011;23688;33.130;-117.188;2024-03-23T09:40:44;6.90;;;2.50;;
37847;SDS011;23688;33.130;-117.188;2024-03-23T09:43:11;5.10;;;3.03;;
37847;SDS011;23688;33.130;-117.188;2024-03-23T09:45:40;7.40;;;2.45;;
37847;SDS011;23688;33.130;-117.188;2024-03-23T09:48:09;9.32;;;3.05;;
37847;SDS011;23688;33.130;-117.188;2024-03-23T09:50:43;5.63;;;2.45;;
37847;SDS011;23688;33.130;-117.188;2024-03-23T09:53:13;6.50;;;3.00;;
37847;SDS011;23688;33.130;-117.188;2024-03-23T09:55:41;4.55;;;2.10;;
37847;SDS011;23688;33.130;-117.188;2024-03-23T09:58:08;7.25;;;2.90;;
37847;SDS011;23688;33.130;-117.188;2024-03-23T10:00:38;6.05;;;2.80;;
37847;SDS011;23688;33.130;-117.188;2024-03-23T10:03:05;7.07;;;3.15;;
37847;SDS011;23688;33.130;-117.188;2024-03-23T10:05:32;9.98;;;3.10;;
37847;SDS011;23688;33.130;-117.188;2024-03-23T10:10:40;6.13;;;2.78;;
37847;SDS011;23688;33.130;-117.188;2024-03-23T10:13:07;8.68;;;3.22;;
37847;SDS011;23688;33.130;-117.188;2024-03-23T10:15:33;8.45;;;3.08;;
37847;SDS011;23688;33.130;-117.188;2024-03-23T10:18:20;5.65;;;3.00;;
37847;SDS011;23688;33.130;-117.188;2024-03-23T10:20:51;5.82;;;3.30;;
37847;SDS011;23688;33.130;-117.188;2024-03-23T10:23:32;6.88;;;3.20;;
37847;SDS011;23688;33.130;-117.188;2024-03-23T10:28:57;6.88;;;3.10;;
37847;SDS011;23688;33.130;-117.188;2024-03-23T10:31:28;7.80;;;2.80;;
37847;SDS011;23688;33.130;-117.188;2024-03-23T10:33:58;4.13;;;3.13;;
37847;SDS011;23688;33.130;-117.188;2024-03-23T10:36:30;10.05;;;3.72;;
37847;SDS011;23688;33.130;-117.188;2024-03-23T10:38:56;13.32;;;3.47;;
37847;SDS011;23688;33.130;-117.188;2024-03-23T10:41:28;8.85;;;3.33;;
37847;SDS011;23688;33.130;-117.188;2024-03-23T10:43:57;19.45;;;3.80;;
37847;SDS011;23688;33.130;-117.188;2024-03-23T10:46:25;7.88;;;3.42;;
37847;SDS011;23688;33.130;-117.188;2024-03-23T10:48:52;6.40;;;3.03;;
37847;SDS011;23688;33.130;-117.188;2024-03-23T10:51:18;8.43;;;3.65;;
37847;SDS011;23688;33.130;-117.188;2024-03-23T10:53:44;8.43;;;3.53;;
37847;SDS011;23688;33.130;-117.188;2024-03-23T10:56:11;9.35;;;3.70;;
37847;SDS011;23688;33.130;-117.188;2024-03-23T10:58:40;7.95;;;3.88;;
37847;SDS011;23688;33.130;-117.188;2024-03-23T11:01:10;15.20;;;4.35;;
37847;SDS011;23688;33.130;-117.188;2024-03-23T11:03:38;10.52;;;3.72;;
37847;SDS011;23688;33.130;-117.188;2024-03-23T11:06:10;5.90;;;4.05;;
37847;SDS011;23688;33.130;-117.188;2024-03-23T11:08:37;11.10;;;3.88;;
37847;SDS011;23688;33.130;-117.188;2024-03-23T11:11:14;7.43;;;4.15;;
37847;SDS011;23688;33.130;-117.188;2024-03-23T11:13:47;12.48;;;5.32;;
37847;SDS011;23688;33.130;-117.188;2024-03-23T11:18:53;8.65;;;4.57;;
37847;SDS011;23688;33.130;-117.188;2024-03-23T11:24:20;8.95;;;4.95;;
37847;SDS011;23688;33.130;-117.188;2024-03-23T11:26:48;7.78;;;4.63;;
37847;SDS011;23688;33.130;-117.188;2024-03-23T11:29:15;8.48;;;4.18;;
37847;SDS011;23688;33.130;-117.188;2024-03-23T11:31:46;11.93;;;4.53;;
37847;SDS011;23688;33.130;-117.188;2024-03-23T11:34:13;9.27;;;4.35;;
37847;SDS011;23688;33.130;-117.188;2024-03-23T11:36:41;14.27;;;4.60;;
37847;SDS011;23688;33.130;-117.188;2024-03-23T11:39:13;11.23;;;5.28;;
37847;SDS011;23688;33.130;-117.188;2024-03-23T11:44:17;7.55;;;5.00;;
37847;SDS011;23688;33.130;-117.188;2024-03-23T11:46:44;6.13;;;4.15;;
37847;SDS011;23688;33.130;-117.188;2024-03-23T11:49:23;6.20;;;4.20;;
37847;SDS011;23688;33.130;-117.188;2024-03-23T11:51:54;6.45;;;3.78;;
37847;SDS011;23688;33.130;-117.188;2024-03-23T11:54:22;6.25;;;3.90;;
37847;SDS011;23688;33.130;-117.188;2024-03-23T11:59:34;6.75;;;4.38;;
37847;SDS011;23688;33.130;-117.188;2024-03-23T12:02:11;8.57;;;3.70;;
37847;SDS011;23688;33.130;-117.188;2024-03-23T12:04:42;7.18;;;3.95;;
37847;SDS011;23688;33.130;-117.188;2024-03-23T12:07:09;5.75;;;4.25;;
37847;SDS011;23688;33.130;-117.188;2024-03-23T12:09:40;8.43;;;3.92;;
37847;SDS011;23688;33.130;-117.188;2024-03-23T12:12:07;5.88;;;3.38;;
37847;SDS011;23688;33.130;-117.188;2024-03-23T12:15:04;8.25;;;4.43;;
37847;SDS011;23688;33.130;-117.188;2024-03-23T12:17:31;8.13;;;3.67;;
37847;SDS011;23688;33.130;-117.188;2024-03-23T12:20:00;7.38;;;4.20;;
37847;SDS011;23688;33.130;-117.188;2024-03-23T12:22:27;6.38;;;3.90;;
37847;SDS011;23688;33.130;-117.188;2024-03-23T12:24:55;6.13;;;3.58;;
37847;SDS011;23688;33.130;-117.188;2024-03-23T12:27:24;9.40;;;4.05;;
37847;SDS011;23688;33.130;-117.188;2024-03-23T12:29:50;7.90;;;4.25;;
37847;SDS011;23688;33.130;-117.188;2024-03-23T12:32:17;6.30;;;3.90;;
37847;SDS011;23688;33.130;-117.188;2024-03-23T12:34:43;7.78;;;3.85;;
37847;SDS011;23688;33.130;-117.188;2024-03-23T12:37:10;7.18;;;3.22;;
37847;SDS011;23688;33.130;-117.188;2024-03-23T12:39:37;14.50;;;4.25;;
37847;SDS011;23688;33.130;-117.188;2024-03-23T12:42:04;6.30;;;3.78;;
37847;SDS011;23688;33.130;-117.188;2024-03-23T12:44:30;5.97;;;3.30;;
37847;SDS011;23688;33.130;-117.188;2024-03-23T12:46:57;6.03;;;3.80;;
37847;SDS011;23688;33.130;-117.188;2024-03-23T12:49:23;6.40;;;3.35;;
37847;SDS011;23688;33.130;-117.188;2024-03-23T12:51:54;7.75;;;3.63;;
37847;SDS011;23688;33.130;-117.188;2024-03-23T12:54:21;9.75;;;3.92;;
37847;SDS011;23688;33.130;-117.188;2024-03-23T12:56:48;6.88;;;3.50;;
37847;SDS011;23688;33.130;-117.188;2024-03-23T12:59:15;8.63;;;3.85;;
37847;SDS011;23688;33.130;-117.188;2024-03-23T13:04:10;8.38;;;3.58;;
37847;SDS011;23688;33.130;-117.188;2024-03-23T13:06:36;4.38;;;3.15;;
37847;SDS011;23688;33.130;-117.188;2024-03-23T13:09:03;3.97;;;2.67;;
37847;SDS011;23688;33.130;-117.188;2024-03-23T13:11:30;6.55;;;3.25;;
37847;SDS011;23688;33.130;-117.188;2024-03-23T13:13:57;7.80;;;3.35;;
37847;SDS011;23688;33.130;-117.188;2024-03-23T13:16:23;9.25;;;3.45;;
37847;SDS011;23688;33.130;-117.188;2024-03-23T13:18:52;6.57;;;3.17;;
37847;SDS011;23688;33.130;-117.188;2024-03-23T13:21:18;7.07;;;3.22;;
37847;SDS011;23688;33.130;-117.188;2024-03-23T13:23:47;6.93;;;3.05;;
37847;SDS011;23688;33.130;-117.188;2024-03-23T13:26:17;6.50;;;3.38;;
37847;SDS011;23688;33.130;-117.188;2024-03-23T13:28:43;5.18;;;3.10;;
37847;SDS011;23688;33.130;-117.188;2024-03-23T13:31:10;6.88;;;3.28;;
37847;SDS011;23688;33.130;-117.188;2024-03-23T13:33:36;6.32;;;3.40;;
37847;SDS011;23688;33.130;-117.188;2024-03-23T13:36:02;9.15;;;3.70;;
37847;SDS011;23688;33.130;-117.188;2024-03-23T13:38:29;5.65;;;3.28;;
37847;SDS011;23688;33.130;-117.188;2024-03-23T13:40:58;7.28;;;3.65;;
37847;SDS011;23688;33.130;-117.188;2024-03-23T13:43:26;7.90;;;3.55;;
37847;SDS011;23688;33.130;-117.188;2024-03-23T13:45:56;5.78;;;3.10;;
37847;SDS011;23688;33.130;-117.188;2024-03-23T13:48:25;10.60;;;3.28;;
37847;SDS011;23688;33.130;-117.188;2024-03-23T13:50:59;7.53;;;2.60;;
37847;SDS011;23688;33.130;-117.188;2024-03-23T13:53:26;8.27;;;3.75;;
37847;SDS011;23688;33.130;-117.188;2024-03-23T13:55:53;6.43;;;3.50;;
37847;SDS011;23688;33.130;-117.188;2024-03-23T13:58:20;8.45;;;4.05;;
37847;SDS011;23688;33.130;-117.188;2024-03-23T14:00:46;5.93;;;3.40;;
37847;SDS011;23688;33.130;-117.188;2024-03-23T14:03:13;3.88;;;2.80;;
37847;SDS011;23688;33.130;-117.188;2024-03-23T14:05:40;8.82;;;3.17;;
37847;SDS011;23688;33.130;-117.188;2024-03-23T14:08:07;11.20;;;3.70;;
37847;SDS011;23688;33.130;-117.188;2024-03-23T14:10:34;4.97;;;3.20;;
37847;SDS011;23688;33.130;-117.188;2024-03-23T14:13:02;5.72;;;3.53;;
37847;SDS011;23688;33.130;-117.188;2024-03-23T14:15:31;6.90;;;3.75;;
37847;SDS011;23688;33.130;-117.188;2024-03-23T14:17:58;4.35;;;3.20;;
37847;SDS011;23688;33.130;-117.188;2024-03-23T14:20:25;8.18;;;3.30;;
37847;SDS011;23688;33.130;-117.188;2024-03-23T14:22:51;4.75;;;2.95;;
37847;SDS011;23688;33.130;-117.188;2024-03-23T14:25:18;10.23;;;3.80;;
37847;SDS011;23688;33.130;-117.188;2024-03-23T14:27:44;9.63;;;3.45;;
37847;SDS011;23688;33.130;-117.188;2024-03-23T14:30:11;5.75;;;3.35;;
37847;SDS011;23688;33.130;-117.188;2024-03-23T14:32:39;8.25;;;3.83;;
37847;SDS011;23688;33.130;-117.188;2024-03-23T14:35:06;8.88;;;3.88;;
37847;SDS011;23688;33.130;-117.188;2024-03-23T14:37:38;3.85;;;3.13;;
37847;SDS011;23688;33.130;-117.188;2024-03-23T14:40:05;6.93;;;3.90;;
37847;SDS011;23688;33.130;-117.188;2024-03-23T14:42:32;6.70;;;3.72;;
37847;SDS011;23688;33.130;-117.188;2024-03-23T14:44:58;7.60;;;3.83;;
37847;SDS011;23688;33.130;-117.188;2024-03-23T14:47:24;8.52;;;5.05;;
37847;SDS011;23688;33.130;-117.188;2024-03-23T14:49:54;6.82;;;4.22;;
37847;SDS011;23688;33.130;-117.188;2024-03-23T14:52:22;5.73;;;3.83;;
37847;SDS011;23688;33.130;-117.188;2024-03-23T14:54:51;9.43;;;3.83;;
37847;SDS011;23688;33.130;-117.188;2024-03-23T14:57:17;5.68;;;3.90;;
37847;SDS011;23688;33.130;-117.188;2024-03-23T14:59:45;5.40;;;4.25;;
37847;SDS011;23688;33.130;-117.188;2024-03-23T15:02:11;8.02;;;4.32;;
37847;SDS011;23688;33.130;-117.188;2024-03-23T15:04:38;5.38;;;4.55;;
37847;SDS011;23688;33.130;-117.188;2024-03-23T15:07:07;7.55;;;3.95;;
37847;SDS011;23688;33.130;-117.188;2024-03-23T15:09:33;7.63;;;5.00;;
37847;SDS011;23688;33.130;-117.188;2024-03-23T15:11:59;6.60;;;4.13;;
37847;SDS011;23688;33.130;-117.188;2024-03-23T15:14:26;9.23;;;4.55;;
37847;SDS011;23688;33.130;-117.188;2024-03-23T15:16:52;8.52;;;4.43;;
37847;SDS011;23688;33.130;-117.188;2024-03-23T15:19:21;6.95;;;4.10;;
37847;SDS011;23688;33.130;-117.188;2024-03-23T15:21:47;7.68;;;4.25;;
37847;SDS011;23688;33.130;-117.188;2024-03-23T15:24:14;8.10;;;4.30;;
37847;SDS011;23688;33.130;-117.188;2024-03-23T15:26:40;6.15;;;4.47;;